Time;durP1;ratioP1;P1;durP2;ratioP2;P2;SDS_P1;SDS_P2;PMS_P1;PMS_P2;Temp;Humidity;BMP_temperature;BMP_pressure;BME280_temperature;BME280_humidity;BME280_pressure;Samples;Min_cycle;Max_cycle;Signal;HPM_P1;HPM_P2
2021/04/02 00:02:08;;;;;;;24.23;6.63;;;;;;;3.61;76.69;102243.69;5052538;28;20690;-45
2021/04/02 00:04:33;;;;;;;19.50;6.20;;;;;;;3.64;75.85;102250.50;5053278;28;20653;-46
2021/04/02 00:07:00;;;;;;;15.60;5.50;;;;;;;3.56;76.53;102253.13;5049673;28;20058;-44
2021/04/02 00:09:25;;;;;;;17.80;5.60;;;;;;;3.35;77.43;102258.91;5055334;28;20629;-46
2021/04/02 00:11:51;;;;;;;15.85;4.90;;;;;;;3.49;76.86;102257.44;5053461;28;20044;-46
2021/04/02 00:14:16;;;;;;;11.27;3.60;;;;;;;3.19;77.89;102254.41;5054528;28;20032;-46
2021/04/02 00:16:43;;;;;;;12.52;3.58;;;;;;;3.25;76.84;102250.28;5051122;28;20028;-46
2021/04/02 00:19:08;;;;;;;11.20;4.03;;;;;;;3.01;78.42;102259.81;5051683;28;20029;-46
2021/04/02 00:21:34;;;;;;;7.18;2.95;;;;;;;3.03;77.87;102252.53;5055771;28;20079;-46
2021/04/02 00:23:59;;;;;;;13.50;3.88;;;;;;;2.98;77.72;102254.03;5054287;28;20032;-46
2021/04/02 00:26:26;;;;;;;16.23;4.40;;;;;;;2.89;77.93;102255.00;5055630;28;20025;-46
2021/04/02 00:28:53;;;;;;;11.45;3.17;;;;;;;2.75;78.78;102260.91;5052056;28;20140;-46
2021/04/02 00:31:20;;;;;;;11.45;3.47;;;;;;;2.73;78.57;102253.97;5053930;28;20032;-47
2021/04/02 00:33:45;;;;;;;7.05;3.13;;;;;;;2.67;78.61;102251.94;5048204;28;20102;-45
2021/04/02 00:36:12;;;;;;;6.32;2.83;;;;;;;2.64;79.05;102252.25;5053992;28;20421;-46
2021/04/02 00:38:37;;;;;;;7.45;2.80;;;;;;;2.71;78.96;102248.00;5054129;28;20486;-47
2021/04/02 00:41:12;;;;;;;11.50;3.80;;;;;;;2.79;79.65;102254.28;5050989;28;20044;-46
2021/04/02 00:43:40;;;;;;;6.80;3.25;;;;;;;2.94;78.54;102252.69;5053147;28;20514;-46
2021/04/02 00:46:07;;;;;;;9.10;4.45;;;;;;;2.93;79.49;102251.88;5051148;28;20067;-45
2021/04/02 00:48:33;;;;;;;8.88;4.78;;;;;;;2.94;79.56;102258.00;5050482;28;20115;-45
2021/04/02 00:51:09;;;;;;;12.35;6.18;;;;;;;2.92;80.73;102254.69;5050835;28;20029;-46
2021/04/02 00:53:41;;;;;;;11.98;6.00;;;;;;;3.05;79.42;102252.38;5051529;28;20027;-47
2021/04/02 00:56:07;;;;;;;10.05;5.53;;;;;;;3.03;79.90;102254.38;5053123;28;20028;-45
2021/04/02 00:58:35;;;;;;;14.82;6.60;;;;;;;3.03;79.66;102252.53;5053093;28;20032;-46
2021/04/02 01:01:03;;;;;;;15.52;6.93;;;;;;;3.05;79.86;102255.03;5052100;28;20028;-46
2021/04/02 01:03:29;;;;;;;12.15;6.65;;;;;;;3.06;79.67;102246.13;5049540;28;20032;-46
2021/04/02 01:05:58;;;;;;;14.88;6.38;;;;;;;2.98;80.16;102251.38;5052293;28;20142;-46
2021/04/02 01:08:29;;;;;;;10.95;6.05;;;;;;;3.08;79.49;102254.72;5049834;28;20154;-45
2021/04/02 01:10:56;;;;;;;10.65;6.18;;;;;;;3.06;79.42;102262.00;5051613;28;20725;-46
2021/04/02 01:13:27;;;;;;;9.90;6.38;;;;;;;3.08;79.27;102259.19;5050481;28;20020;-46
2021/04/02 01:16:18;;;;;;;12.80;6.53;;;;;;;2.98;79.95;102256.66;5054168;28;20728;-46
2021/04/02 01:19:09;;;;;;;12.98;5.97;;;;;;;2.95;79.63;102257.00;5050416;28;20024;-46
2021/04/02 01:22:04;;;;;;;12.45;7.25;;;;;;;2.91;79.42;102248.56;5050624;28;20043;-45
2021/04/02 01:24:37;;;;;;;7.63;5.45;;;;;;;2.63;81.44;102237.38;5049896;28;20029;-46
2021/04/02 01:27:11;;;;;;;8.30;5.57;;;;;;;2.62;80.81;102245.47;5051199;28;20507;-45
2021/04/02 01:29:55;;;;;;;9.25;4.50;;;;;;;2.58;81.08;102241.47;5053469;28;20025;-46
2021/04/02 01:32:38;;;;;;;6.68;4.15;;;;;;;2.64;80.50;102248.78;5051462;28;20029;-46
2021/04/02 01:35:18;;;;;;;6.45;3.63;;;;;;;2.68;80.33;102243.00;5052837;28;20184;-45
2021/04/02 01:37:52;;;;;;;5.80;3.50;;;;;;;2.66;81.08;102242.31;5051521;28;20028;-46
2021/04/02 01:40:21;;;;;;;11.13;4.13;;;;;;;2.80;80.04;102248.84;5052159;28;20029;-46
2021/04/02 01:42:49;;;;;;;9.05;3.40;;;;;;;2.71;80.38;102250.63;5049940;28;20604;-46
2021/04/02 01:45:17;;;;;;;6.38;3.20;;;;;;;2.78;79.93;102252.63;5051701;28;20546;-45
2021/04/02 01:47:43;;;;;;;5.75;3.30;;;;;;;2.81;80.14;102252.31;5052274;28;20067;-47
2021/04/02 01:50:13;;;;;;;10.38;3.35;;;;;;;2.80;79.85;102256.78;5052856;28;20032;-46
2021/04/02 01:52:40;;;;;;;7.47;3.67;;;;;;;2.83;79.65;102250.34;5058304;22;20041;-81
2021/04/02 01:55:09;;;;;;;7.90;3.83;;;;;;;2.76;80.18;102255.44;5035015;28;20055;-82
2021/04/02 01:57:39;;;;;;;4.38;2.53;;;;;;;2.80;80.40;102255.94;5029970;28;20029;-82
2021/04/02 02:00:21;;;;;;;4.13;2.55;;;;;;;2.84;79.73;102252.81;5033902;28;20055;-82
2021/04/02 02:02:47;;;;;;;7.90;2.67;;;;;;;2.89;79.07;102255.00;5034589;28;20021;-82
2021/04/02 02:05:13;;;;;;;8.50;2.92;;;;;;;2.91;79.15;102260.97;5037484;28;20021;-82
2021/04/02 02:07:43;;;;;;;7.38;2.65;;;;;;;2.84;79.41;102266.06;5036587;28;20029;-82
2021/04/02 02:10:12;;;;;;;6.10;2.95;;;;;;;2.78;80.07;102257.94;5034285;28;20502;-82
2021/04/02 02:12:40;;;;;;;4.78;2.80;;;;;;;2.66;79.80;102260.84;5045718;28;20045;-82
2021/04/02 02:15:10;;;;;;;6.95;3.08;;;;;;;2.59;80.00;102262.50;5030483;28;20032;-83
2021/04/02 02:17:37;;;;;;;11.05;3.78;;;;;;;2.45;80.34;102256.97;5027309;28;20693;-83
2021/04/02 02:20:10;;;;;;;7.72;3.15;;;;;;;2.33;80.73;102261.69;5027812;28;20025;-82
2021/04/02 02:22:38;;;;;;;9.15;3.47;;;;;;;2.27;80.97;102264.97;5028274;28;20856;-82
2021/04/02 02:25:07;;;;;;;8.05;3.13;;;;;;;2.17;81.16;102256.31;5032756;28;20112;-82
2021/04/02 02:27:36;;;;;;;6.68;3.15;;;;;;;2.14;80.92;102244.22;5045713;28;20481;-82
2021/04/02 02:30:13;;;;;;;7.75;3.50;;;;;;;2.00;81.16;102248.28;5029685;28;20029;-82
2021/04/02 02:32:39;;;;;;;6.00;3.60;;;;;;;1.89;81.16;102245.06;5023409;28;20101;-82
2021/04/02 02:35:07;;;;;;;9.30;4.57;;;;;;;1.79;81.47;102237.19;5030638;28;20092;-82
2021/04/02 02:37:35;;;;;;;6.55;2.90;;;;;;;1.71;81.37;102243.25;5045736;28;20379;-82
2021/04/02 02:40:15;;;;;;;6.13;3.40;;;;;;;1.68;81.79;102237.47;5043344;28;20040;-81
2021/04/02 02:42:42;;;;;;;6.45;3.58;;;;;;;1.61;82.04;102237.22;5042953;28;20037;-82
2021/04/02 02:45:10;;;;;;;6.97;3.65;;;;;;;1.60;81.97;102235.56;5047493;28;20025;-81
2021/04/02 02:47:36;;;;;;;7.85;3.33;;;;;;;1.54;81.99;102245.94;5028367;28;20688;-83
2021/04/02 02:50:05;;;;;;;7.10;3.90;;;;;;;1.49;81.66;102241.94;5029270;28;20040;-82
2021/04/02 02:52:32;;;;;;;5.72;3.03;;;;;;;1.49;81.75;102241.94;5028649;28;20035;-82
2021/04/02 02:54:59;;;;;;;6.07;3.40;;;;;;;1.43;81.90;102237.25;5064427;28;20029;-81
2021/04/02 02:57:25;;;;;;;10.10;4.07;;;;;;;1.35;82.69;102237.19;5049781;28;20085;-81
2021/04/02 02:59:52;;;;;;;7.30;3.90;;;;;;;1.25;83.15;102230.31;5041570;28;20111;-81
2021/04/02 03:02:20;;;;;;;6.28;3.65;;;;;;;1.20;82.82;102228.13;5047548;28;20029;-82
2021/04/02 03:04:46;;;;;;;7.20;4.03;;;;;;;1.09;83.91;102228.34;5046680;28;20037;-81
2021/04/02 03:07:13;;;;;;;11.95;3.63;;;;;;;1.16;82.49;102224.13;5045902;28;20079;-81
2021/04/02 03:09:41;;;;;;;7.20;3.63;;;;;;;1.13;82.56;102219.16;5044825;28;20033;-82
2021/04/02 03:12:08;;;;;;;6.65;3.40;;;;;;;1.15;82.26;102219.81;5047164;28;20033;-82
2021/04/02 03:14:35;;;;;;;7.25;3.92;;;;;;;1.05;83.15;102217.25;5035551;28;20025;-82
2021/04/02 03:17:04;;;;;;;9.27;3.80;;;;;;;1.00;82.83;102218.69;5040626;28;20494;-82
2021/04/02 03:19:31;;;;;;;10.38;4.28;;;;;;;0.97;82.67;102211.06;5056683;28;20025;-82
2021/04/02 03:21:58;;;;;;;9.57;3.88;;;;;;;0.97;82.38;102222.44;5039606;28;20433;-83
2021/04/02 03:24:25;;;;;;;9.90;3.45;;;;;;;0.99;82.47;102215.22;5048271;28;20028;-82
2021/04/02 03:26:53;;;;;;;6.88;3.42;;;;;;;0.92;82.58;102208.06;5045451;28;20025;-81
2021/04/02 03:29:22;;;;;;;10.93;4.35;;;;;;;0.82;82.43;102206.28;5050212;28;20106;-82
2021/04/02 03:31:50;;;;;;;6.53;3.17;;;;;;;0.76;82.27;102192.88;5037215;28;20032;-82
2021/04/02 03:34:18;;;;;;;7.95;3.60;;;;;;;0.68;82.31;102200.69;5043949;28;20028;-82
2021/04/02 03:36:47;;;;;;;7.70;3.60;;;;;;;0.55;82.56;102201.06;5039846;28;20381;-82
2021/04/02 03:39:20;;;;;;;8.18;3.78;;;;;;;0.48;82.79;102210.50;5054195;28;20036;-82
2021/04/02 03:41:49;;;;;;;6.88;3.85;;;;;;;0.38;82.52;102207.09;5046438;28;20040;-81
2021/04/02 03:44:15;;;;;;;5.90;3.20;;;;;;;0.37;83.37;102205.44;5043544;28;20032;-81
2021/04/02 03:46:43;;;;;;;11.10;3.42;;;;;;;0.47;82.41;102206.22;5048579;28;20012;-82
2021/04/02 03:49:17;;;;;;;5.60;3.40;;;;;;;0.46;82.28;102208.00;5043327;28;20115;-82
2021/04/02 03:51:44;;;;;;;6.95;3.65;;;;;;;0.27;83.55;102198.38;5046163;28;20053;-84
2021/04/02 03:54:12;;;;;;;10.48;4.13;;;;;;;0.05;86.10;102197.94;5043390;28;20025;-82
2021/04/02 03:56:42;;;;;;;12.80;5.70;;;;;;;-0.19;89.94;102201.03;5049218;28;20020;-83
2021/04/02 03:59:08;;;;;;;9.95;5.00;;;;;;;-0.04;87.36;102202.22;5053086;28;20024;-82
2021/04/02 04:01:43;;;;;;;7.63;4.78;;;;;;;-0.05;87.73;102204.03;5052229;28;20025;-82
2021/04/02 04:04:09;;;;;;;;;;;;;;;-0.10;89.16;102202.81;5047509;28;20021;-82
2021/04/02 04:06:36;;;;;;;10.07;4.57;;;;;;;0.05;86.83;102200.56;5055188;28;19912;-83
2021/04/02 04:09:09;;;;;;;12.45;4.63;;;;;;;0.13;84.82;102200.66;5042102;28;20092;-82
2021/04/02 04:11:37;;;;;;;10.05;3.80;;;;;;;0.16;83.94;102198.56;5050350;28;20032;-82
2021/04/02 04:14:03;;;;;;;13.35;3.58;;;;;;;0.06;83.56;102189.03;5047551;28;20031;-82
2021/04/02 04:16:31;;;;;;;7.03;3.88;;;;;;;-0.08;83.41;102183.25;5069709;28;20024;-82
2021/04/02 04:18:59;;;;;;;6.63;2.97;;;;;;;-0.15;83.30;102182.19;5050890;28;20032;-81
2021/04/02 04:21:30;;;;;;;5.15;3.47;;;;;;;-0.23;83.95;102189.09;5050043;28;20036;-82
2021/04/02 04:24:00;;;;;;;7.90;3.88;;;;;;;-0.22;83.63;102185.50;5069042;28;20039;-82
2021/04/02 04:26:28;;;;;;;7.80;3.50;;;;;;;-0.22;83.48;102193.41;5063939;28;20032;-81
2021/04/02 04:28:55;;;;;;;9.82;4.57;;;;;;;-0.27;83.87;102185.94;5053978;28;20029;-82
2021/04/02 04:31:23;;;;;;;7.03;3.45;;;;;;;-0.27;83.69;102177.19;5049108;28;20548;-82
2021/04/02 04:33:51;;;;;;;8.90;3.72;;;;;;;-0.31;83.75;102177.50;5042232;28;20029;-81
2021/04/02 04:36:19;;;;;;;6.15;4.07;;;;;;;-0.37;83.72;102174.56;5044824;28;20134;-82
2021/04/02 04:38:46;;;;;;;6.80;3.50;;;;;;;-0.39;84.02;102174.72;5047587;28;20033;-81
2021/04/02 04:41:14;;;;;;;6.75;3.78;;;;;;;-0.43;83.33;102178.63;5045865;28;20083;-81
2021/04/02 04:43:41;;;;;;;11.10;5.35;;;;;;;-0.53;84.82;102169.91;5052158;28;20056;-81
2021/04/02 04:46:07;;;;;;;14.75;5.55;;;;;;;-0.47;84.40;102164.06;5051319;28;20039;-81
2021/04/02 04:48:33;;;;;;;10.27;4.60;;;;;;;-0.47;84.44;102169.34;5055449;28;20035;-82
2021/04/02 04:50:59;;;;;;;8.35;3.80;;;;;;;-0.35;83.94;102164.75;5048310;28;20025;-82
2021/04/02 04:53:26;;;;;;;9.63;4.55;;;;;;;-0.36;83.97;102158.66;5075387;28;20039;-81
2021/04/02 04:55:54;;;;;;;9.98;4.38;;;;;;;-0.32;83.44;102167.94;5053718;28;20606;-82
2021/04/02 04:58:22;;;;;;;6.78;3.72;;;;;;;-0.31;83.82;102166.97;5053564;28;20028;-81
2021/04/02 05:00:50;;;;;;;8.02;4.25;;;;;;;-0.32;83.16;102175.84;5048402;28;20090;-81
2021/04/02 05:03:20;;;;;;;5.78;3.60;;;;;;;-0.27;82.70;102166.66;5054868;28;20071;-82
2021/04/02 05:05:48;;;;;;;6.68;4.03;;;;;;;-0.26;82.60;102168.31;5053236;28;20052;-81
2021/04/02 05:08:19;;;;;;;7.00;3.70;;;;;;;-0.27;83.03;102172.75;5046476;28;20024;-81
2021/04/02 05:10:49;;;;;;;9.55;4.28;;;;;;;-0.23;82.57;102178.56;5048718;28;20624;-81
2021/04/02 05:13:17;;;;;;;7.63;3.50;;;;;;;-0.10;82.17;102179.09;5053727;28;20031;-81
2021/04/02 05:15:45;;;;;;;11.32;3.88;;;;;;;0.12;82.06;102180.56;5048525;28;20066;-81
2021/04/02 05:18:11;;;;;;;10.52;4.80;;;;;;;0.35;81.42;102184.47;5072037;28;20025;-82
2021/04/02 05:20:40;;;;;;;8.65;4.53;;;;;;;0.56;80.62;102186.88;5044590;28;20040;-81
2021/04/02 05:23:07;;;;;;;8.55;4.88;;;;;;;0.75;80.19;102180.66;5052816;28;20033;-82
2021/04/02 05:25:32;;;;;;;12.40;4.97;;;;;;;0.94;80.03;102185.81;5054367;28;20043;-81
2021/04/02 05:27:59;;;;;;;8.73;4.68;;;;;;;1.06;79.66;102179.31;5053366;28;20024;-82
2021/04/02 05:30:25;;;;;;;9.85;5.78;;;;;;;1.24;79.23;102175.84;5068838;28;20060;-82
2021/04/02 05:32:51;;;;;;;10.77;5.10;;;;;;;1.38;79.07;102183.22;5052465;28;20024;-81
2021/04/02 05:35:16;;;;;;;9.45;5.60;;;;;;;1.51;78.92;102187.13;5056817;28;20400;-82
2021/04/02 05:37:42;;;;;;;10.40;5.28;;;;;;;1.65;78.79;102196.34;5051745;28;20055;-81
2021/04/02 05:40:08;;;;;;;12.65;6.15;;;;;;;1.74;78.84;102186.63;5067437;28;20032;-81
2021/04/02 05:42:37;;;;;;;14.07;6.05;;;;;;;1.77;79.73;102186.31;5048888;28;20572;-81
2021/04/02 05:45:03;;;;;;;35.00;10.07;;;;;;;1.75;82.01;102189.13;5044932;28;20552;-81
2021/04/02 05:47:30;;;;;;;23.00;8.98;;;;;;;1.82;81.50;102181.41;5054272;28;20204;-84
2021/04/02 05:50:00;;;;;;;57.28;12.85;;;;;;;1.72;84.54;102188.59;5053013;28;20033;-82
2021/04/02 05:52:29;;;;;;;63.58;11.65;;;;;;;1.63;86.19;102179.81;5052078;28;20487;-82
2021/04/02 05:54:57;;;;;;;49.80;10.73;;;;;;;1.46;88.52;102181.50;5053327;28;20067;-82
2021/04/02 05:57:24;;;;;;;130.27;20.13;;;;;;;0.95;92.70;102187.47;5049890;28;20486;-81
2021/04/02 05:59:52;;;;;;;62.92;13.45;;;;;;;1.17;92.29;102180.91;5047875;28;20044;-81
2021/04/02 06:02:18;;;;;;;117.70;18.27;;;;;;;1.08;92.78;102182.66;5061998;28;20035;-82
2021/04/02 06:04:45;;;;;;;66.13;12.68;;;;;;;1.09;93.30;102189.59;5055503;28;20628;-81
2021/04/02 06:07:11;;;;;;;133.85;18.98;;;;;;;1.28;92.84;102178.03;5065560;28;20108;-82
2021/04/02 06:09:36;;;;;;;139.68;20.30;;;;;;;1.12;92.75;102181.38;5053235;28;21975;-81
2021/04/02 06:12:02;;;;;;;101.10;17.52;;;;;;;1.20;94.91;102181.44;5053941;28;20024;-83
2021/04/02 06:14:28;;;;;;;141.63;20.08;;;;;;;1.33;94.52;102177.59;5058265;28;20027;-81
2021/04/02 06:16:54;;;;;;;45.22;12.60;;;;;;;1.67;92.59;102177.69;5054141;28;20035;-82
2021/04/02 06:19:20;;;;;;;54.60;13.07;;;;;;;1.81;91.01;102174.47;5054995;28;20617;-82
2021/04/02 06:21:51;;;;;;;56.08;13.52;;;;;;;1.92;89.79;102176.84;5065433;28;20093;-82
2021/04/02 06:24:37;;;;;;;19.20;8.77;;;;;;;2.33;88.24;102177.88;5044035;28;20389;-82
2021/04/02 06:27:05;;;;;;;21.00;8.50;;;;;;;2.48;86.54;102172.81;5053291;28;20052;-81
2021/04/02 06:29:40;;;;;;;23.02;9.10;;;;;;;2.57;86.25;102169.22;5049895;28;20028;-82
2021/04/02 06:32:14;;;;;;;25.00;9.43;;;;;;;2.84;84.15;102167.28;5062999;28;20865;-82
2021/04/02 06:34:46;;;;;;;30.73;10.52;;;;;;;3.00;83.17;102164.66;5047676;28;20029;-82
2021/04/02 06:37:15;;;;;;;39.00;13.80;;;;;;;3.06;82.88;102169.31;5055952;28;20025;-82
2021/04/02 06:39:49;;;;;;;48.53;13.60;;;;;;;3.17;82.56;102170.81;5052673;28;20047;-82
2021/04/02 06:42:27;;;;;;;40.78;14.43;;;;;;;3.22;81.74;102174.59;5048618;28;20020;-83
2021/04/02 06:44:58;;;;;;;65.25;17.23;;;;;;;3.13;82.32;102180.09;5065370;28;20087;-82
2021/04/02 06:47:38;;;;;;;51.85;15.80;;;;;;;3.05;83.27;102175.59;5047640;28;20066;-82
2021/04/02 06:50:27;;;;;;;62.78;16.75;;;;;;;3.05;83.87;102170.28;5052957;28;20617;-82
2021/04/02 06:52:57;;;;;;;41.42;14.32;;;;;;;3.27;82.52;102167.03;5047922;28;20124;-82
2021/04/02 06:55:25;;;;;;;63.47;17.02;;;;;;;3.02;83.40;102165.31;5047087;28;20086;-82
2021/04/02 06:57:54;;;;;;;63.17;17.48;;;;;;;3.09;84.38;102169.00;5055028;28;20081;-82
2021/04/02 07:00:21;;;;;;;54.63;17.80;;;;;;;3.45;82.26;102171.31;5048191;28;20028;-80
2021/04/02 07:02:47;;;;;;;81.43;23.70;;;;;;;2.99;84.72;102171.78;5059197;28;20064;-80
2021/04/02 07:05:25;;;;;;;82.38;23.20;;;;;;;2.75;86.55;102168.28;5072269;28;20023;-80
2021/04/02 07:08:00;;;;;;;73.57;23.77;;;;;;;2.55;89.11;102171.19;5054190;28;20497;-81
2021/04/02 07:10:27;;;;;;;68.78;22.42;;;;;;;2.69;87.77;102169.72;5051297;28;20025;-82
2021/04/02 07:12:54;;;;;;;62.92;21.63;;;;;;;2.82;87.67;102169.25;5045403;28;20066;-81
2021/04/02 07:15:20;;;;;;;82.30;26.40;;;;;;;2.29;90.78;102168.59;5049586;28;20061;-83
2021/04/02 07:17:47;;;;;;;79.00;27.20;;;;;;;2.17;91.31;102174.34;5055811;28;20039;-84
2021/04/02 07:20:14;;;;;;;63.50;23.20;;;;;;;2.78;88.86;102165.28;5047997;28;20074;-82
2021/04/02 07:22:43;;;;;;;64.53;23.27;;;;;;;2.87;88.04;102164.31;5050543;28;20040;-82
2021/04/02 07:25:10;;;;;;;69.30;24.48;;;;;;;2.67;88.97;102169.06;5044052;28;20047;-83
2021/04/02 07:27:37;;;;;;;67.03;22.92;;;;;;;3.12;87.02;102175.78;5048409;28;20078;-83
2021/04/02 07:30:04;;;;;;;72.47;26.25;;;;;;;3.02;88.28;102163.50;5056287;28;20040;-82
2021/04/02 07:32:31;;;;;;;53.78;19.67;;;;;;;3.55;84.99;102175.44;5050678;28;20091;-83
2021/04/02 07:34:58;;;;;;;61.42;22.55;;;;;;;3.56;84.63;102178.91;5066745;28;20104;-82
2021/04/02 07:37:23;;;;;;;76.65;26.95;;;;;;;3.47;85.53;102177.28;5052078;28;20139;-82
2021/04/02 07:39:54;;;;;;;72.05;24.95;;;;;;;3.75;84.36;102177.75;5047814;28;20095;-82
2021/04/02 07:42:21;;;;;;;69.65;25.33;;;;;;;4.00;83.35;102175.88;5053255;28;20025;-82
2021/04/02 07:44:53;;;;;;;66.85;24.52;;;;;;;4.15;82.38;102180.31;5062344;28;20183;-83
2021/04/02 07:47:21;;;;;;;72.13;28.35;;;;;;;3.86;84.12;102175.56;5050992;28;20032;-83
2021/04/02 07:49:51;;;;;;;73.60;26.00;;;;;;;3.75;82.74;102170.59;5052598;28;20332;-82
2021/04/02 07:52:17;;;;;;;74.57;28.35;;;;;;;3.94;83.82;102164.09;5054132;28;20092;-82
2021/04/02 07:54:44;;;;;;;75.00;27.33;;;;;;;3.88;84.77;102162.16;5067405;28;20310;-84
2021/04/02 07:57:13;;;;;;;75.05;29.25;;;;;;;4.49;82.25;102160.63;5048920;28;20028;-84
2021/04/02 07:59:41;;;;;;;57.45;21.67;;;;;;;5.02;80.04;102158.94;5046699;28;20025;-84
2021/04/02 08:02:15;;;;;;;60.83;26.30;;;;;;;5.11;79.45;102166.69;5053646;28;20145;-84
2021/04/02 08:04:50;;;;;;;81.03;30.42;;;;;;;4.27;82.25;102175.44;5050871;28;20652;-82
2021/04/02 08:07:18;;;;;;;75.43;29.58;;;;;;;4.06;83.61;102168.06;5042676;28;20021;-82
2021/04/02 08:09:50;;;;;;;77.68;30.20;;;;;;;4.86;80.95;102162.56;5064637;28;20052;-83
2021/04/02 08:12:17;;;;;;;72.28;29.17;;;;;;;5.01;80.13;102157.28;5047123;28;20025;-83
2021/04/02 08:14:51;;;;;;;75.95;28.73;;;;;;;5.06;80.19;102155.78;5047925;28;20032;-82
2021/04/02 08:17:23;;;;;;;78.40;32.28;;;;;;;4.90;79.88;102147.94;5048266;28;20409;-83
2021/04/02 08:19:49;;;;;;;72.20;30.92;;;;;;;5.52;78.03;102153.06;5041027;28;20029;-83
2021/04/02 08:22:18;;;;;;;70.53;28.20;;;;;;;5.21;77.94;102155.84;5048704;28;20032;-84
2021/04/02 08:24:48;;;;;;;66.07;27.85;;;;;;;5.04;79.31;102144.50;5050230;28;20548;-84
2021/04/02 08:27:15;;;;;;;59.95;25.77;;;;;;;4.82;79.49;102142.66;5053427;28;20028;-83
2021/04/02 08:29:45;;;;;;;52.30;22.63;;;;;;;4.84;79.92;102143.28;5046079;28;20037;-83
2021/04/02 08:32:14;;;;;;;43.70;20.63;;;;;;;5.05;78.75;102135.53;5047054;28;20096;-83
2021/04/02 08:34:49;;;;;;;40.88;19.08;;;;;;;4.87;78.66;102131.53;5055594;28;20971;-83
2021/04/02 08:37:16;;;;;;;31.70;14.43;;;;;;;5.45;77.09;102131.69;5055365;28;21663;-83
2021/04/02 08:39:42;;;;;;;32.15;17.35;;;;;;;5.99;75.36;102128.84;5054937;28;20110;-84
2021/04/02 08:42:11;;;;;;;27.50;13.75;;;;;;;6.38;72.27;102121.56;5046058;28;20546;-83
2021/04/02 08:44:42;;;;;;;24.95;14.20;;;;;;;6.70;73.35;102129.09;5050936;28;20394;-82
2021/04/02 08:47:10;;;;;;;26.63;14.00;;;;;;;6.58;72.39;102123.44;5050910;28;20027;-83
2021/04/02 08:49:55;;;;;;;19.27;10.20;;;;;;;7.22;70.46;102112.78;5064553;28;20028;-83
2021/04/02 08:52:22;;;;;;;21.90;11.73;;;;;;;7.73;69.24;102117.06;5048205;28;20399;-82
2021/04/02 08:54:56;;;;;;;22.52;11.25;;;;;;;7.89;68.20;102116.72;5045667;28;20032;-82
2021/04/02 08:57:27;;;;;;;16.60;9.27;;;;;;;8.17;67.56;102127.34;5060642;28;20021;-84
2021/04/02 08:59:54;;;;;;;20.65;11.93;;;;;;;8.35;66.91;102121.50;5057150;28;20023;-85
2021/04/02 09:02:21;;;;;;;21.15;11.55;;;;;;;8.47;65.54;102119.91;5069356;28;20682;-81
2021/04/02 09:04:48;;;;;;;18.83;10.38;;;;;;;8.22;66.81;102105.38;5048023;28;20088;-82
2021/04/02 09:07:14;;;;;;;17.60;9.25;;;;;;;8.35;66.38;102100.13;5046716;28;20989;-82
2021/04/02 09:09:41;;;;;;;10.65;6.03;;;;;;;7.82;66.78;102091.84;5053271;28;20193;-82
2021/04/02 09:12:10;;;;;;;10.30;6.18;;;;;;;7.78;66.16;102088.75;5053581;28;20078;-83
2021/04/02 09:14:46;;;;;;;9.68;5.18;;;;;;;8.03;64.28;102089.09;5053615;28;20021;-83
2021/04/02 09:17:20;;;;;;;6.07;3.35;;;;;;;7.80;64.72;102081.38;5053268;28;20020;-83
2021/04/02 09:19:46;;;;;;;8.25;4.57;;;;;;;7.46;63.08;102074.19;5063997;28;20230;-83
2021/04/02 09:22:13;;;;;;;7.40;3.90;;;;;;;7.61;64.30;102062.59;5053496;28;20627;-82
2021/04/02 09:24:41;;;;;;;5.47;3.75;;;;;;;7.38;65.70;102066.38;5054588;28;20039;-82
2021/04/02 09:27:12;;;;;;;5.75;3.50;;;;;;;7.45;64.64;102061.88;5049686;28;20032;-82
2021/04/02 09:29:38;;;;;;;6.25;3.20;;;;;;;7.61;63.51;102060.75;5063430;28;20114;-82
2021/04/02 09:32:05;;;;;;;5.07;2.90;;;;;;;7.91;62.41;102058.66;5056154;28;20112;-83
2021/04/02 09:34:31;;;;;;;5.18;2.80;;;;;;;7.66;62.07;102058.31;5051824;28;20036;-82
2021/04/02 09:36:58;;;;;;;5.82;3.00;;;;;;;7.90;61.98;102054.34;5051352;28;20858;-82
2021/04/02 09:39:25;;;;;;;3.75;2.67;;;;;;;7.53;61.57;102048.38;5048867;28;20044;-83
2021/04/02 09:41:54;;;;;;;4.30;3.30;;;;;;;7.64;62.33;102047.03;5056451;28;20033;-82
2021/04/02 09:44:25;;;;;;;3.47;2.63;;;;;;;7.83;59.31;102042.81;5047549;28;20035;-82
2021/04/02 09:46:52;;;;;;;5.20;2.70;;;;;;;7.90;60.30;102038.34;5051597;28;20524;-82
2021/04/02 09:49:20;;;;;;;3.70;2.55;;;;;;;8.43;59.52;102035.84;5053831;28;20058;-82
2021/04/02 09:51:51;;;;;;;4.78;3.25;;;;;;;8.19;58.99;102024.66;5050826;28;20956;-83
2021/04/02 09:54:17;;;;;;;3.20;2.47;;;;;;;8.52;59.85;102021.28;5066686;28;20107;-83
2021/04/02 09:56:44;;;;;;;2.97;2.30;;;;;;;8.40;58.72;102018.38;5047847;28;20049;-82
2021/04/02 09:59:11;;;;;;;3.63;2.40;;;;;;;7.78;58.39;102014.06;5052210;28;20585;-82
2021/04/02 10:01:39;;;;;;;5.05;2.95;;;;;;;7.21;59.23;102001.84;5052426;28;20032;-82
2021/04/02 10:04:06;;;;;;;4.15;2.70;;;;;;;7.92;58.11;101995.44;5044806;28;20522;-83
2021/04/02 10:06:33;;;;;;;3.85;2.80;;;;;;;7.53;57.59;102003.03;5065616;28;20036;-83
2021/04/02 10:08:59;;;;;;;4.13;2.28;;;;;;;7.80;57.63;102000.50;5054997;28;20029;-82
2021/04/02 10:11:26;;;;;;;2.90;2.40;;;;;;;8.36;56.55;101987.78;5048297;28;20024;-83
2021/04/02 10:13:52;;;;;;;3.03;2.20;;;;;;;8.69;54.14;101981.66;5053257;28;20024;-82
2021/04/02 10:16:19;;;;;;;3.75;2.35;;;;;;;8.93;54.79;101972.16;5048573;28;20461;-83
2021/04/02 10:18:50;;;;;;;3.75;2.72;;;;;;;8.66;54.29;101977.53;5047872;28;20109;-83
2021/04/02 10:21:19;;;;;;;2.97;2.10;;;;;;;9.25;53.82;101973.97;5068292;28;20125;-83
2021/04/02 10:23:45;;;;;;;3.00;2.15;;;;;;;9.09;52.42;101963.72;5050195;28;20028;-83
2021/04/02 10:26:11;;;;;;;3.88;2.10;;;;;;;9.20;51.73;101965.78;5054131;28;20082;-83
2021/04/02 10:28:38;;;;;;;2.45;1.80;;;;;;;9.79;51.62;101961.25;5048874;28;20079;-83
2021/04/02 10:31:04;;;;;;;3.10;2.08;;;;;;;10.12;50.88;101958.38;5049549;28;20041;-83
2021/04/02 10:33:31;;;;;;;1.95;1.45;;;;;;;9.89;47.82;101954.41;5060341;28;20491;-82
2021/04/02 10:35:56;;;;;;;1.88;1.45;;;;;;;10.29;45.36;101960.38;5047834;28;20037;-82
2021/04/02 10:38:23;;;;;;;1.67;1.17;;;;;;;10.77;45.59;101962.47;5048967;28;20020;-82
2021/04/02 10:40:48;;;;;;;2.33;1.27;;;;;;;11.29;44.34;101959.47;5051547;28;20035;-83
2021/04/02 10:43:14;;;;;;;1.25;1.00;;;;;;;10.97;43.90;101958.81;5051549;28;20020;-83
2021/04/02 10:45:40;;;;;;;1.85;1.08;;;;;;;10.15;44.21;101960.63;5046965;28;20040;-83
2021/04/02 10:48:07;;;;;;;2.10;1.92;;;;;;;10.84;44.43;101940.97;5067014;28;20026;-83
2021/04/02 10:50:33;;;;;;;1.55;0.98;;;;;;;10.57;42.53;101945.72;5063005;28;20082;-83
2021/04/02 10:53:27;;;;;;;2.58;1.20;;;;;;;10.25;42.64;101948.44;5047000;28;21221;-82
2021/04/02 10:56:12;;;;;;;1.10;1.00;;;;;;;10.10;44.16;101933.69;5053315;28;20795;-83
2021/04/02 10:58:38;;;;;;;2.47;1.10;;;;;;;10.54;43.96;101924.72;5043719;28;20032;-83
2021/04/02 11:01:04;;;;;;;1.48;1.10;;;;;;;10.92;43.94;101927.25;5045194;28;20035;-83
2021/04/02 11:03:30;;;;;;;1.38;1.15;;;;;;;11.05;42.78;101926.31;5044456;28;20040;-83
2021/04/02 11:05:55;;;;;;;3.70;1.27;;;;;;;11.27;43.36;101926.69;5047979;28;20119;-84
2021/04/02 11:08:21;;;;;;;2.13;1.10;;;;;;;10.86;43.27;101928.16;5050896;28;20028;-84
2021/04/02 11:10:47;;;;;;;4.72;1.40;;;;;;;10.43;44.32;101920.91;5061977;28;20108;-81
2021/04/02 11:13:13;;;;;;;3.10;1.30;;;;;;;10.68;44.67;101912.03;5041029;28;20279;-83
2021/04/02 11:15:39;;;;;;;1.65;1.27;;;;;;;10.99;42.57;101909.25;5048058;28;20550;-84
2021/04/02 11:18:05;;;;;;;2.60;1.10;;;;;;;11.07;41.92;101908.13;5044701;28;20497;-84
2021/04/02 11:20:31;;;;;;;1.20;1.00;;;;;;;11.19;42.43;101909.03;5060683;28;20107;-83
2021/04/02 11:22:58;;;;;;;1.52;1.15;;;;;;;11.22;41.24;101899.72;5039582;28;20115;-82
2021/04/02 11:25:24;;;;;;;1.55;1.30;;;;;;;10.92;42.61;101900.44;5044924;28;20141;-81
2021/04/02 11:27:50;;;;;;;2.83;1.63;;;;;;;9.85;44.07;101921.03;5058615;28;20043;-80
2021/04/02 11:30:18;;;;;;;1.10;1.00;;;;;;;9.81;45.47;101901.09;5036792;28;20066;-80
2021/04/02 11:32:44;;;;;;;2.40;1.30;;;;;;;10.79;44.10;101895.25;5062180;28;20668;-81
2021/04/02 11:35:11;;;;;;;1.98;1.08;;;;;;;11.20;43.09;101890.03;5044977;28;20043;-81